Time;durP1;ratioP1;P1;durP2;ratioP2;P2;SDS_P1;SDS_P2;PMS_P1;PMS_P2;Temp;Humidity;BMP_temperature;BMP_pressure;BME280_temperature;BME280_humidity;BME280_pressure;Samples;Min_cycle;Max_cycle;Signal;HPM_P1;HPM_P2
2021/08/31 08:06:01;;;;;;;10.47;5.50;;;17.90;99.90;;;;;;6304452;22;20644;-74
2021/08/31 08:08:30;;;;;;;9.87;5.33;;;18.10;99.90;;;;;;6273278;22;20182;-78
2021/08/31 08:10:56;;;;;;;8.30;5.00;;;18.30;99.90;;;;;;6274484;22;20645;-81
2021/08/31 08:13:23;;;;;;;9.00;5.50;;;18.50;99.90;;;;;;6275569;22;20195;-77
2021/08/31 08:15:50;;;;;;;10.53;5.03;;;18.60;99.90;;;;;;6274456;22;20225;-77
2021/08/31 08:18:17;;;;;;;8.53;5.07;;;18.80;99.90;;;;;;6275412;22;20181;-80
2021/08/31 08:20:45;;;;;;;9.07;5.30;;;18.30;99.90;;;;;;6275129;22;20175;-81
2021/08/31 08:23:14;;;;;;;10.93;5.30;;;18.60;99.90;;;;;;6274479;22;20213;-78
2021/08/31 08:25:41;;;;;;;9.30;4.93;;;18.60;99.90;;;;;;6275767;22;20202;-76
2021/08/31 08:28:08;;;;;;;8.27;5.10;;;18.70;99.90;;;;;;6274977;22;20217;-76
2021/08/31 08:30:35;;;;;;;7.40;4.53;;;18.80;99.90;;;;;;6275460;22;20228;-75
2021/08/31 08:33:02;;;;;;;12.57;6.03;;;18.90;99.90;;;;;;6275379;22;20245;-77
2021/08/31 08:35:29;;;;;;;8.97;5.50;;;19.10;99.90;;;;;;6274454;22;20625;-75
2021/08/31 08:37:57;;;;;;;10.47;5.97;;;19.00;99.90;;;;;;6274674;22;20213;-77
2021/08/31 08:40:26;;;;;;;9.63;5.40;;;19.10;99.90;;;;;;6275180;22;20253;-77
2021/08/31 08:42:53;;;;;;;9.63;5.67;;;19.10;99.90;;;;;;6275558;22;20201;-77
2021/08/31 08:45:21;;;;;;;11.23;5.60;;;19.10;99.90;;;;;;6275041;22;20178;-77
2021/08/31 08:47:48;;;;;;;10.43;6.03;;;19.20;99.90;;;;;;6274655;22;20179;-78
2021/08/31 08:50:15;;;;;;;10.53;6.30;;;19.20;99.90;;;;;;6275170;22;20511;-78
2021/08/31 08:52:42;;;;;;;13.33;5.80;;;19.10;99.90;;;;;;6274398;22;20672;-75
2021/08/31 08:55:10;;;;;;;9.53;5.50;;;19.10;99.90;;;;;;6274509;22;20175;-78
2021/08/31 08:57:38;;;;;;;11.17;6.77;;;19.10;99.90;;;;;;6274775;22;20174;-77
2021/08/31 09:00:06;;;;;;;10.53;6.63;;;18.90;99.90;;;;;;6274667;22;20667;-82
2021/08/31 09:02:38;;;;;;;11.40;6.23;;;18.90;99.90;;;;;;6274558;22;20558;-78
2021/08/31 09:05:06;;;;;;;11.50;6.00;;;18.70;99.90;;;;;;6275422;22;20182;-76
2021/08/31 09:07:37;;;;;;;15.60;6.87;;;18.70;99.90;;;;;;6274068;22;20206;-78
2021/08/31 09:10:16;;;;;;;10.18;5.90;;;18.90;99.90;;;;;;6275818;22;20254;-79
2021/08/31 09:12:47;;;;;;;10.77;6.03;;;19.10;99.90;;;;;;6275538;22;20510;-77
2021/08/31 09:15:23;;;;;;;10.77;5.68;;;19.30;99.90;;;;;;6275749;22;20257;-75
2021/08/31 09:18:25;;;;;;;11.60;6.18;;;19.30;99.90;;;;;;6275927;22;20189;-80
2021/08/31 09:21:03;;;;;;;8.82;5.95;;;19.30;99.90;;;;;;6150989;23;20734;-77
2021/08/31 09:23:32;;;;;;;11.10;6.25;;;19.40;99.90;;;;;;6260118;22;20277;-74
2021/08/31 09:26:06;;;;;;;11.00;6.95;;;19.60;99.90;;;;;;6271632;22;20181;-76
2021/08/31 09:28:36;;;;;;;10.88;6.20;;;19.60;99.90;;;;;;6275602;22;20506;-76
2021/08/31 09:31:07;;;;;;;10.50;6.95;;;19.60;99.90;;;;;;6275300;22;20673;-76
2021/08/31 09:33:36;;;;;;;10.35;6.50;;;19.90;99.90;;;;;;6276972;22;20708;-76
2021/08/31 09:36:07;;;;;;;13.10;6.78;;;20.00;99.90;;;;;;6278598;22;20258;-76
2021/08/31 09:38:52;;;;;;;10.23;6.50;;;20.00;99.90;;;;;;6279582;22;20182;-76
2021/08/31 09:41:28;;;;;;;9.02;5.95;;;20.00;99.90;;;;;;6277572;22;20178;-76
2021/08/31 09:44:05;;;;;;;11.07;6.40;;;19.90;99.90;;;;;;6284429;22;20232;-76
2021/08/31 09:46:56;;;;;;;8.60;5.70;;;19.90;99.90;;;;;;6279037;22;20594;-76
2021/08/31 09:49:26;;;;;;;8.65;5.45;;;20.00;99.90;;;;;;6277995;22;20236;-77
2021/08/31 09:52:10;;;;;;;8.35;4.65;;;19.90;99.90;;;;;;6279125;22;20221;-75
2021/08/31 09:54:40;;;;;;;8.43;4.70;;;19.90;99.90;;;;;;6278963;22;20179;-73
2021/08/31 09:57:29;;;;;;;8.35;4.20;;;19.80;99.90;;;;;;6278470;22;20179;-77
2021/08/31 09:59:57;;;;;;;7.00;3.80;;;19.90;99.90;;;;;;6278117;22;20189;-78
2021/08/31 10:02:25;;;;;;;6.63;3.72;;;20.30;99.90;;;;;;6277905;22;20521;-77
2021/08/31 10:04:53;;;;;;;5.75;3.53;;;20.50;99.90;;;;;;6278136;22;20624;-77
2021/08/31 10:07:22;;;;;;;5.68;3.65;;;20.60;99.90;;;;;;6278257;22;20282;-77
2021/08/31 10:09:50;;;;;;;8.20;3.80;;;20.80;99.90;;;;;;6278523;22;20210;-77
2021/08/31 10:12:19;;;;;;;7.07;4.45;;;20.80;99.90;;;;;;6278445;22;20212;-78
2021/08/31 10:14:50;;;;;;;8.75;4.22;;;20.80;99.90;;;;;;6278477;22;20175;-79
2021/08/31 10:17:20;;;;;;;6.50;3.67;;;20.90;99.90;;;;;;6278759;22;20263;-78
2021/08/31 10:19:49;;;;;;;5.80;3.55;;;20.70;99.90;;;;;;6278112;22;20640;-78
2021/08/31 10:22:17;;;;;;;5.55;3.90;;;20.30;99.90;;;;;;6277342;22;20175;-78
2021/08/31 10:24:45;;;;;;;4.60;3.17;;;20.50;99.90;;;;;;6278146;22;20179;-78
2021/08/31 10:27:32;;;;;;;7.03;3.80;;;20.70;99.90;;;;;;6278509;22;20294;-78
2021/08/31 10:30:28;;;;;;;7.57;3.78;;;21.10;99.90;;;;;;6278062;22;20205;-77
2021/08/31 10:32:58;;;;;;;6.70;3.53;;;21.30;99.90;;;;;;6277330;22;20206;-77
2021/08/31 10:35:52;;;;;;;8.25;4.57;;;21.40;99.90;;;;;;6276650;22;20179;-76
2021/08/31 10:38:40;;;;;;;5.63;3.60;;;21.60;99.90;;;;;;6276679;22;20179;-78
2021/08/31 10:41:43;;;;;;;8.98;4.07;;;21.60;99.90;;;;;;6277106;22;20183;-78
2021/08/31 10:44:11;;;;;;;8.23;4.40;;;21.60;99.90;;;;;;6277179;22;20202;-78
2021/08/31 10:47:21;;;;;;;9.63;4.32;;;21.60;99.90;;;;;;6277706;22;20174;-78
2021/08/31 10:50:17;;;;;;;6.65;3.80;;;21.60;99.90;;;;;;6277444;22;20698;-77
2021/08/31 10:52:49;;;;;;;5.63;3.35;;;21.30;99.90;;;;;;6277462;22;20207;-78
2021/08/31 10:55:44;;;;;;;6.93;3.80;;;21.20;99.90;;;;;;6277389;22;20268;-78
2021/08/31 10:58:15;;;;;;;5.85;3.50;;;20.80;99.90;;;;;;6277824;22;20252;-77
2021/08/31 11:00:50;;;;;;;8.32;3.67;;;20.90;99.90;;;;;;6277989;22;20213;-77
2021/08/31 11:03:38;;;;;;;6.78;4.38;;;20.60;99.90;;;;;;6277818;22;20201;-77
2021/08/31 11:06:18;;;;;;;5.03;3.17;;;20.50;99.90;;;;;;6277830;22;20269;-77
2021/08/31 11:09:02;;;;;;;6.10;3.22;;;20.40;99.90;;;;;;6277273;22;20673;-76
2021/08/31 11:11:29;;;;;;;8.70;3.08;;;20.50;99.90;;;;;;6277956;22;20258;-76
2021/08/31 11:13:56;;;;;;;7.03;3.33;;;20.70;99.90;;;;;;6277404;22;20293;-80
2021/08/31 11:16:25;;;;;;;8.07;3.35;;;21.10;99.90;;;;;;6277482;22;20179;-76
2021/08/31 11:18:51;;;;;;;6.65;3.63;;;20.90;99.90;;;;;;6277713;22;20183;-76
2021/08/31 11:21:20;;;;;;;7.03;2.70;;;21.30;99.90;;;;;;6277503;22;20183;-76
2021/08/31 11:23:47;;;;;;;4.55;2.88;;;21.40;99.90;;;;;;6277336;22;20195;-76
2021/08/31 11:26:23;;;;;;;6.55;3.47;;;21.60;99.90;;;;;;6277625;22;20236;-76
2021/08/31 11:28:51;;;;;;;6.70;3.33;;;21.60;99.90;;;;;;6277126;22;20185;-78
2021/08/31 11:31:24;;;;;;;8.32;3.35;;;21.70;99.90;;;;;;6277042;22;20643;-76
2021/08/31 11:33:52;;;;;;;6.60;2.75;;;22.00;99.90;;;;;;6277169;22;20214;-76
2021/08/31 11:36:22;;;;;;;7.38;3.00;;;22.20;99.90;;;;;;6277554;22;20258;-77
2021/08/31 11:38:52;;;;;;;5.25;2.70;;;22.40;99.90;;;;;;6277316;22;20181;-77
2021/08/31 11:41:22;;;;;;;4.47;2.40;;;22.40;99.90;;;;;;6277676;22;20261;-77
2021/08/31 11:43:50;;;;;;;3.70;2.47;;;22.40;99.90;;;;;;6277325;22;20677;-78
2021/08/31 11:46:22;;;;;;;5.68;2.38;;;22.20;99.90;;;;;;6277798;22;20618;-78
2021/08/31 11:48:49;;;;;;;4.18;1.98;;;22.20;99.90;;;;;;6278088;22;20257;-79
2021/08/31 11:51:20;;;;;;;4.15;2.47;;;22.20;99.90;;;;;;6277052;22;20185;-82
2021/08/31 11:53:48;;;;;;;4.38;2.13;;;22.40;99.90;;;;;;6276632;22;20213;-79
2021/08/31 11:56:20;;;;;;;3.67;2.10;;;22.60;99.90;;;;;;6276767;22;20181;-79
2021/08/31 11:58:47;;;;;;;3.50;1.95;;;22.50;99.90;;;;;;6277342;22;20179;-79
2021/08/31 12:01:27;;;;;;;5.45;2.50;;;22.30;99.90;;;;;;6277092;22;20720;-82
2021/08/31 12:03:54;;;;;;;4.95;2.45;;;22.20;99.90;;;;;;6277246;22;20229;-82
2021/08/31 12:06:24;;;;;;;5.60;2.08;;;22.10;99.90;;;;;;6277057;22;20588;-81
2021/08/31 12:08:52;;;;;;;3.03;2.03;;;22.00;99.90;;;;;;6277042;22;20179;-78
2021/08/31 12:11:18;;;;;;;3.45;1.90;;;22.10;99.90;;;;;;6276990;22;20499;-78
2021/08/31 12:13:48;;;;;;;4.20;2.33;;;22.10;99.90;;;;;;6276494;22;20211;-81
2021/08/31 12:16:18;;;;;;;3.90;1.92;;;22.00;99.90;;;;;;6277373;22;20179;-79
2021/08/31 12:18:44;;;;;;;3.85;2.13;;;22.10;99.90;;;;;;6277669;22;20175;-78
2021/08/31 12:21:17;;;;;;;4.05;2.10;;;22.10;99.90;;;;;;6277530;22;20175;-77
2021/08/31 12:23:46;;;;;;;4.72;2.53;;;22.20;99.90;;;;;;6278297;22;20199;-78
2021/08/31 12:26:28;;;;;;;4.82;2.08;;;22.40;99.90;;;;;;6277649;22;20185;-78
2021/08/31 12:29:00;;;;;;;4.32;2.30;;;22.60;99.90;;;;;;6277016;22;20573;-81
2021/08/31 12:31:27;;;;;;;4.53;2.30;;;22.60;99.90;;;;;;6276448;22;20180;-79
2021/08/31 12:33:54;;;;;;;5.63;2.20;;;22.30;99.90;;;;;;6276242;22;20675;-78
2021/08/31 12:36:31;;;;;;;7.68;2.15;;;22.20;99.90;;;;;;6276779;22;20254;-80
2021/08/31 12:39:05;;;;;;;5.72;2.20;;;22.10;99.90;;;;;;6276960;22;20178;-78
2021/08/31 12:41:39;;;;;;;3.33;1.80;;;22.00;99.90;;;;;;6277181;22;20185;-79
2021/08/31 12:44:16;;;;;;;3.95;1.83;;;21.60;99.90;;;;;;6276863;22;20301;-79
2021/08/31 12:46:43;;;;;;;7.60;1.95;;;21.60;99.90;;;;;;6277167;22;20181;-77
2021/08/31 12:49:13;;;;;;;3.70;1.73;;;21.90;99.90;;;;;;6276913;22;20181;-79
2021/08/31 12:51:42;;;;;;;5.22;2.03;;;22.10;99.90;;;;;;6276749;22;20185;-81
2021/08/31 12:54:24;;;;;;;4.55;1.83;;;22.20;99.90;;;;;;6276646;22;20660;-79
2021/08/31 12:56:53;;;;;;;4.28;2.10;;;22.40;99.90;;;;;;6281135;22;20261;-78
2021/08/31 12:59:31;;;;;;;3.20;1.90;;;22.70;99.90;;;;;;6278356;22;20225;-77
2021/08/31 13:01:58;;;;;;;4.28;2.13;;;23.00;99.90;;;;;;6276523;22;20640;-78
2021/08/31 13:04:25;;;;;;;3.75;1.88;;;22.90;99.90;;;;;;6276663;22;20219;-78
2021/08/31 13:07:03;;;;;;;3.22;1.83;;;23.10;99.90;;;;;;6276182;22;20183;-78
2021/08/31 13:09:31;;;;;;;3.15;1.70;;;23.00;99.90;;;;;;6276617;22;20185;-78
2021/08/31 13:11:58;;;;;;;2.97;1.60;;;23.00;99.90;;;;;;6276834;22;20175;-77
2021/08/31 13:14:26;;;;;;;3.22;1.70;;;22.60;99.90;;;;;;6276471;22;20679;-78
2021/08/31 13:16:55;;;;;;;3.05;1.65;;;22.20;99.90;;;;;;6276157;22;20181;-77
2021/08/31 13:19:22;;;;;;;3.00;1.83;;;22.20;99.90;;;;;;6276631;22;20175;-77
2021/08/31 13:21:50;;;;;;;4.43;1.73;;;22.20;99.90;;;;;;6276463;22;20185;-79
2021/08/31 13:24:17;;;;;;;3.05;1.60;;;22.30;99.90;;;;;;6276201;22;20195;-78
2021/08/31 13:26:48;;;;;;;4.30;2.17;;;22.30;99.90;;;;;;6276543;22;20181;-78
2021/08/31 13:29:14;;;;;;;3.45;2.20;;;22.50;99.90;;;;;;6276113;22;20505;-77
2021/08/31 13:31:42;;;;;;;3.65;2.05;;;22.80;99.90;;;;;;6276494;22;20487;-77
2021/08/31 13:34:10;;;;;;;4.13;2.03;;;22.60;99.90;;;;;;6276050;22;20687;-78
2021/08/31 13:36:37;;;;;;;4.43;2.13;;;22.50;99.90;;;;;;6276515;22;20236;-78
2021/08/31 13:39:04;;;;;;;3.17;2.03;;;22.50;99.90;;;;;;6276598;22;20175;-78
2021/08/31 13:41:33;;;;;;;3.33;2.20;;;22.40;99.90;;;;;;6276208;22;20185;-78
2021/08/31 13:44:03;;;;;;;3.53;1.88;;;22.30;99.90;;;;;;6276537;22;20201;-77
2021/08/31 13:46:31;;;;;;;3.85;2.17;;;22.10;99.90;;;;;;6276554;22;20179;-78
2021/08/31 13:48:59;;;;;;;4.45;2.17;;;22.20;99.90;;;;;;6276380;22;20181;-76
2021/08/31 13:51:26;;;;;;;4.30;2.10;;;22.40;99.90;;;;;;6276235;22;20233;-76
2021/08/31 13:53:53;;;;;;;3.45;1.85;;;22.40;99.90;;;;;;6276071;22;20221;-78
2021/08/31 13:56:19;;;;;;;4.50;1.90;;;22.30;99.90;;;;;;6276342;22;20206;-76
2021/08/31 13:58:46;;;;;;;3.88;1.80;;;22.30;99.90;;;;;;6276371;22;20175;-75
2021/08/31 14:01:14;;;;;;;3.95;1.95;;;22.30;99.90;;;;;;6276273;22;20625;-75
2021/08/31 14:03:43;;;;;;;4.30;1.70;;;22.20;99.90;;;;;;6276834;22;20302;-76
2021/08/31 14:06:10;;;;;;;4.00;2.05;;;22.20;99.90;;;;;;6276153;22;20248;-75
2021/08/31 14:08:37;;;;;;;3.17;1.52;;;22.30;99.90;;;;;;6276401;22;20256;-75
2021/08/31 14:11:04;;;;;;;3.92;1.95;;;22.30;99.90;;;;;;6276019;22;20655;-75
2021/08/31 14:13:31;;;;;;;5.00;2.08;;;22.30;99.90;;;;;;6276293;22;20210;-75
2021/08/31 14:15:58;;;;;;;4.70;2.03;;;22.30;99.90;;;;;;6276365;22;20197;-77
2021/08/31 14:18:26;;;;;;;3.40;1.67;;;22.40;99.90;;;;;;6275464;22;20321;-75
2021/08/31 14:20:53;;;;;;;3.22;1.73;;;22.50;99.90;;;;;;6276785;22;20633;-76
2021/08/31 14:23:20;;;;;;;2.97;1.38;;;22.50;99.90;;;;;;6278108;22;20281;-76
2021/08/31 14:25:47;;;;;;;3.95;1.63;;;22.60;99.90;;;;;;6278299;22;20175;-75
2021/08/31 14:28:14;;;;;;;2.33;1.65;;;22.50;99.90;;;;;;6277995;22;20643;-76
2021/08/31 14:30:41;;;;;;;3.42;1.75;;;22.30;99.90;;;;;;6277859;22;20171;-76
2021/08/31 14:33:08;;;;;;;4.30;1.92;;;22.30;99.90;;;;;;6277959;22;20206;-75
2021/08/31 14:35:36;;;;;;;4.65;1.92;;;22.50;99.90;;;;;;6277662;22;20174;-76
2021/08/31 14:38:03;;;;;;;3.83;1.85;;;22.70;99.90;;;;;;6277688;22;20460;-75
2021/08/31 14:40:30;;;;;;;3.65;1.73;;;22.90;99.90;;;;;;6278125;22;20175;-76
2021/08/31 14:42:57;;;;;;;4.78;1.98;;;23.00;99.90;;;;;;6277453;22;20205;-76
2021/08/31 14:45:23;;;;;;;4.97;1.95;;;22.90;99.90;;;;;;6277900;22;20254;-77
2021/08/31 14:47:50;;;;;;;3.42;1.67;;;22.70;99.90;;;;;;6278132;22;20214;-76
2021/08/31 14:50:17;;;;;;;3.90;1.63;;;22.70;99.90;;;;;;6277686;22;20258;-76
2021/08/31 14:52:45;;;;;;;4.43;1.48;;;22.90;99.90;;;;;;6277917;22;20520;-76
2021/08/31 14:55:12;;;;;;;3.83;1.67;;;23.20;99.90;;;;;;6277787;22;20245;-76
2021/08/31 14:57:39;;;;;;;2.78;1.90;;;23.60;99.90;;;;;;6277371;22;20249;-77
2021/08/31 15:00:07;;;;;;;3.88;1.60;;;23.80;99.90;;;;;;6277961;22;20532;-75
2021/08/31 15:02:33;;;;;;;4.30;1.50;;;23.70;99.90;;;;;;6278012;22;20195;-76
2021/08/31 15:05:00;;;;;;;4.07;2.00;;;23.50;99.90;;;;;;6277913;22;20178;-76
2021/08/31 15:07:27;;;;;;;6.40;2.05;;;23.40;99.90;;;;;;6277192;22;20210;-77
2021/08/31 15:09:55;;;;;;;2.80;1.60;;;23.20;99.90;;;;;;6277600;22;20175;-76
2021/08/31 15:12:22;;;;;;;4.13;1.83;;;22.90;99.90;;;;;;6277229;22;20199;-75
2021/08/31 15:14:49;;;;;;;3.97;1.85;;;22.90;99.90;;;;;;6277689;22;20241;-75
2021/08/31 15:17:16;;;;;;;4.03;1.65;;;22.80;99.90;;;;;;6277840;22;20258;-76
2021/08/31 15:19:43;;;;;;;3.78;1.65;;;22.80;99.90;;;;;;6277217;22;20551;-76
2021/08/31 15:22:10;;;;;;;3.20;1.70;;;22.60;99.90;;;;;;6277210;22;20629;-75
2021/08/31 15:24:37;;;;;;;3.72;1.60;;;22.40;99.90;;;;;;6277353;22;20655;-75
2021/08/31 15:27:05;;;;;;;5.15;1.58;;;22.40;99.90;;;;;;6277364;22;20197;-75
2021/08/31 15:29:32;;;;;;;2.38;1.50;;;22.40;99.90;;;;;;6277553;22;20225;-75
2021/08/31 15:31:59;;;;;;;5.38;1.83;;;22.50;99.90;;;;;;6277122;22;20179;-79
2021/08/31 15:34:26;;;;;;;3.22;1.85;;;22.50;99.90;;;;;;6276715;22;20529;-79
2021/08/31 15:36:53;;;;;;;3.20;1.45;;;22.50;99.90;;;;;;6276803;22;20183;-77
2021/08/31 15:39:20;;;;;;;6.82;2.08;;;22.70;99.90;;;;;;6277093;22;20181;-76
2021/08/31 15:41:47;;;;;;;5.03;1.88;;;22.80;99.90;;;;;;6277169;22;20202;-75
2021/08/31 15:44:15;;;;;;;4.05;1.85;;;22.90;99.90;;;;;;6276995;22;20195;-75
2021/08/31 15:46:42;;;;;;;3.78;1.90;;;22.80;99.90;;;;;;6276983;22;20175;-76
2021/08/31 15:49:09;;;;;;;7.53;2.50;;;22.60;99.90;;;;;;6277210;22;20179;-75
2021/08/31 15:51:36;;;;;;;4.72;1.90;;;22.40;99.90;;;;;;6276835;22;20270;-77
2021/08/31 15:54:03;;;;;;;2.97;1.30;;;22.20;99.90;;;;;;6276591;22;20285;-75
2021/08/31 15:56:30;;;;;;;2.50;1.80;;;22.20;99.90;;;;;;6277295;22;20261;-75
2021/08/31 15:58:57;;;;;;;5.70;1.77;;;22.20;99.90;;;;;;6276611;22;20633;-76
2021/08/31 16:01:25;;;;;;;2.70;1.70;;;22.20;99.90;;;;;;6276708;22;20497;-77
2021/08/31 16:03:52;;;;;;;6.35;1.80;;;22.00;99.90;;;;;;6277020;22;20508;-79
2021/08/31 16:06:19;;;;;;;6.35;1.85;;;21.90;99.90;;;;;;6276485;22;20182;-76
2021/08/31 16:08:46;;;;;;;3.28;1.77;;;22.10;99.90;;;;;;6276494;22;20175;-75
2021/08/31 16:11:13;;;;;;;5.18;1.63;;;22.20;99.90;;;;;;6277087;22;20187;-76
2021/08/31 16:13:41;;;;;;;3.83;1.83;;;22.20;99.90;;;;;;6276652;22;20206;-76
2021/08/31 16:16:10;;;;;;;5.45;1.65;;;22.20;99.90;;;;;;6276951;22;20175;-75
2021/08/31 16:18:39;;;;;;;2.28;1.60;;;22.40;99.90;;;;;;6276650;22;20637;-77
2021/08/31 16:21:06;;;;;;;4.30;1.58;;;22.50;99.90;;;;;;6276423;22;20655;-76
2021/08/31 16:23:33;;;;;;;4.25;1.67;;;22.60;99.90;;;;;;6276858;22;20285;-76
2021/08/31 16:26:01;;;;;;;4.78;2.17;;;22.30;99.90;;;;;;6276703;22;20493;-76
2021/08/31 16:28:28;;;;;;;3.63;1.90;;;22.10;99.90;;;;;;6276752;22;20178;-75
2021/08/31 16:30:55;;;;;;;3.53;1.88;;;22.00;99.90;;;;;;6276511;22;20494;-76
2021/08/31 16:33:22;;;;;;;6.53;1.55;;;21.90;99.90;;;;;;6276538;22;20195;-75
2021/08/31 16:35:50;;;;;;;2.38;1.50;;;21.70;99.90;;;;;;6276075;22;20179;-75
2021/08/31 16:38:17;;;;;;;4.13;1.85;;;21.70;99.90;;;;;;6276214;22;20175;-74
2021/08/31 16:40:45;;;;;;;5.65;1.75;;;21.60;99.90;;;;;;6276288;22;20181;-75
2021/08/31 16:43:12;;;;;;;2.95;1.88;;;21.30;99.90;;;;;;6275465;22;20202;-75
2021/08/31 16:45:39;;;;;;;3.65;2.00;;;21.30;99.90;;;;;;6276608;22;20185;-77
2021/08/31 16:48:06;;;;;;;5.03;1.80;;;21.30;99.90;;;;;;6276482;22;20175;-76
2021/08/31 16:50:33;;;;;;;4.38;1.80;;;21.30;99.90;;;;;;6276603;22;20175;-76
2021/08/31 16:53:02;;;;;;;2.95;1.52;;;21.30;99.90;;;;;;6275448;22;20194;-76
2021/08/31 16:55:37;;;;;;;4.10;2.75;;;21.20;99.90;;;;;;6275583;22;20677;-77
2021/08/31 16:58:04;;;;;;;6.30;1.73;;;21.10;99.90;;;;;;6275833;22;20205;-85
2021/08/31 17:00:33;;;;;;;3.17;1.50;;;21.10;99.90;;;;;;6276366;22;20175;-76
2021/08/31 17:03:00;;;;;;;4.90;1.75;;;21.20;99.90;;;;;;6275727;22;20673;-77
2021/08/31 17:05:27;;;;;;;2.72;1.70;;;21.20;99.90;;;;;;6276484;22;20181;-76
2021/08/31 17:07:54;;;;;;;3.75;1.77;;;21.30;99.90;;;;;;6275749;22;20189;-75
2021/08/31 17:10:22;;;;;;;3.60;1.90;;;21.30;99.90;;;;;;6275921;22;20179;-77
2021/08/31 17:12:49;;;;;;;3.92;1.77;;;21.10;99.90;;;;;;6276343;22;20230;-77
2021/08/31 17:15:16;;;;;;;4.57;1.77;;;21.10;99.90;;;;;;6276343;22;20207;-77
2021/08/31 17:17:43;;;;;;;3.47;1.73;;;20.90;99.90;;;;;;6276480;22;20700;-75
2021/08/31 17:20:12;;;;;;;3.83;1.50;;;20.90;99.90;;;;;;6276421;22;20258;-75
2021/08/31 17:22:39;;;;;;;3.92;1.55;;;21.00;99.90;;;;;;6276176;22;20198;-75
2021/08/31 17:25:08;;;;;;;2.38;1.17;;;21.00;99.90;;;;;;6276545;22;20181;-75
2021/08/31 17:27:37;;;;;;;4.68;1.92;;;21.00;99.90;;;;;;6276538;22;20253;-74
2021/08/31 17:30:04;;;;;;;2.50;1.50;;;20.80;99.90;;;;;;6276507;22;20266;-75
2021/08/31 17:32:31;;;;;;;5.38;1.70;;;20.60;99.90;;;;;;6276592;22;20293;-74
2021/08/31 17:34:58;;;;;;;3.78;1.73;;;20.50;99.90;;;;;;6276099;22;20207;-75
2021/08/31 17:37:25;;;;;;;3.13;1.60;;;20.50;99.90;;;;;;6275436;22;20179;-74
2021/08/31 17:39:51;;;;;;;4.97;1.77;;;20.50;99.90;;;;;;6276240;22;20174;-76
2021/08/31 17:42:19;;;;;;;3.35;1.85;;;20.30;99.90;;;;;;6276870;22;20266;-74
2021/08/31 17:44:47;;;;;;;2.60;1.60;;;20.20;99.90;;;;;;6277632;22;20257;-74
2021/08/31 17:47:14;;;;;;;4.95;1.73;;;20.10;99.90;;;;;;6278508;22;20175;-74
2021/08/31 17:49:41;;;;;;;4.57;1.80;;;20.00;99.90;;;;;;6276297;22;20202;-74
2021/08/31 17:52:09;;;;;;;3.35;1.50;;;20.00;99.90;;;;;;6275685;22;20182;-76
2021/08/31 17:54:40;;;;;;;4.47;1.50;;;20.00;99.90;;;;;;6276540;22;20203;-75
2021/08/31 17:57:07;;;;;;;3.67;1.70;;;19.90;99.90;;;;;;6278032;22;20178;-74
2021/08/31 17:59:34;;;;;;;3.67;1.90;;;19.80;99.90;;;;;;6278199;22;20179;-76
2021/08/31 18:02:03;;;;;;;3.47;1.58;;;19.80;99.90;;;;;;6278225;22;20199;-75
2021/08/31 18:04:30;;;;;;;4.50;1.63;;;19.80;99.90;;;;;;6278365;22;20175;-76
2021/08/31 18:06:57;;;;;;;5.07;1.63;;;19.60;99.90;;;;;;6277912;22;20193;-76
2021/08/31 18:09:24;;;;;;;5.43;1.90;;;19.50;99.90;;;;;;6278043;22;20530;-77
2021/08/31 18:11:50;;;;;;;4.63;1.80;;;19.50;99.90;;;;;;6278080;22;20174;-74
2021/08/31 18:14:17;;;;;;;5.32;1.85;;;19.50;99.90;;;;;;6278145;22;20211;-76
2021/08/31 18:16:44;;;;;;;3.63;2.13;;;19.40;99.90;;;;;;6278240;22;20181;-76
2021/08/31 18:19:13;;;;;;;5.03;1.60;;;19.30;99.90;;;;;;6278767;22;20493;-75
2021/08/31 18:21:40;;;;;;;4.65;2.13;;;19.20;99.90;;;;;;6278244;22;20182;-77
2021/08/31 18:24:07;;;;;;;5.43;1.83;;;19.00;99.90;;;;;;6277793;22;20207;-75
2021/08/31 18:26:34;;;;;;;6.18;2.28;;;19.00;99.90;;;;;;6278873;22;20175;-75
2021/08/31 18:29:01;;;;;;;4.80;2.00;;;19.10;99.90;;;;;;6278270;22;20179;-76
2021/08/31 18:31:28;;;;;;;4.70;1.98;;;19.00;99.90;;;;;;6278129;22;20175;-76
2021/08/31 18:33:54;;;;;;;4.43;1.77;;;19.00;99.90;;;;;;6278025;22;20202;-76
2021/08/31 18:36:23;;;;;;;3.73;1.63;;;18.90;99.90;;;;;;6281872;22;20202;-75
2021/08/31 18:38:50;;;;;;;7.67;2.17;;;18.80;99.90;;;;;;6282479;22;20261;-75
2021/08/31 18:41:17;;;;;;;9.97;2.70;;;18.70;99.90;;;;;;6282465;22;20175;-75
2021/08/31 18:43:44;;;;;;;7.60;2.40;;;18.80;99.90;;;;;;6279194;22;20277;-75
2021/08/31 18:46:11;;;;;;;5.73;1.80;;;18.70;99.90;;;;;;6278160;22;20648;-78
2021/08/31 18:48:40;;;;;;;4.67;1.90;;;18.60;99.90;;;;;;6278069;22;20205;-76
2021/08/31 18:51:07;;;;;;;3.33;1.80;;;18.70;99.90;;;;;;6277470;22;20179;-75
2021/08/31 18:53:40;;;;;;;4.13;1.87;;;18.60;99.90;;;;;;6277664;22;20217;-75
2021/08/31 18:56:07;;;;;;;4.73;1.83;;;18.50;99.90;;;;;;6277293;22;20203;-78
2021/08/31 18:58:34;;;;;;;2.87;1.63;;;18.50;99.90;;;;;;6277822;22;20174;-76
2021/08/31 19:01:01;;;;;;;3.43;2.17;;;18.50;99.90;;;;;;6278451;22;20182;-75
2021/08/31 19:03:27;;;;;;;7.33;1.80;;;18.30;99.90;;;;;;6280080;22;20202;-76
2021/08/31 19:05:54;;;;;;;4.47;1.77;;;18.30;99.90;;;;;;6277829;22;20282;-75
2021/08/31 19:08:22;;;;;;;6.00;2.10;;;18.30;99.90;;;;;;6278048;22;20181;-75
2021/08/31 19:10:51;;;;;;;4.37;1.67;;;18.30;99.90;;;;;;6278343;22;20174;-75
2021/08/31 19:13:18;;;;;;;4.37;1.83;;;18.00;99.90;;;;;;6278409;22;20237;-76
2021/08/31 19:15:45;;;;;;;3.00;1.87;;;17.80;99.90;;;;;;6277891;22;20207;-75
2021/08/31 19:18:12;;;;;;;4.57;1.60;;;17.80;99.90;;;;;;6277919;22;20504;-75
2021/08/31 19:20:38;;;;;;;4.40;1.67;;;17.80;99.90;;;;;;6277775;22;20186;-75
2021/08/31 19:23:06;;;;;;;4.33;1.80;;;17.80;99.90;;;;;;6276957;22;20691;-75
2021/08/31 19:25:33;;;;;;;3.07;1.70;;;17.80;99.90;;;;;;6277614;22;20175;-73
2021/08/31 19:28:01;;;;;;;5.40;1.70;;;17.80;99.90;;;;;;6277216;22;20179;-73
2021/08/31 19:30:28;;;;;;;5.53;2.07;;;17.80;99.90;;;;;;6277500;22;20175;-73
2021/08/31 19:32:55;;;;;;;4.13;2.13;;;17.80;99.90;;;;;;6277414;22;20201;-73
2021/08/31 19:35:22;;;;;;;4.50;1.80;;;18.00;99.90;;;;;;6277755;22;20691;-73
2021/08/31 19:37:49;;;;;;;5.70;1.77;;;17.90;99.90;;;;;;6277116;22;20648;-73
2021/08/31 19:40:16;;;;;;;5.67;2.30;;;17.70;99.90;;;;;;6277283;22;20181;-73
2021/08/31 19:42:43;;;;;;;3.77;1.90;;;17.50;99.90;;;;;;6276602;22;20205;-74
2021/08/31 19:45:12;;;;;;;5.10;1.80;;;17.40;99.90;;;;;;6276863;22;20509;-74
2021/08/31 19:47:39;;;;;;;6.73;2.30;;;17.40;99.90;;;;;;6277219;22;20636;-74
2021/08/31 19:50:08;;;;;;;3.47;1.77;;;17.40;99.90;;;;;;6277396;22;20174;-74
2021/08/31 19:52:36;;;;;;;3.30;1.60;;;17.40;99.90;;;;;;6277915;22;20201;-75
2021/08/31 19:55:03;;;;;;;4.97;2.17;;;17.30;99.90;;;;;;6277080;22;20203;-75
2021/08/31 19:57:30;;;;;;;3.90;2.00;;;17.20;99.90;;;;;;6277651;22;20181;-75
2021/08/31 19:59:57;;;;;;;5.23;1.60;;;17.20;99.90;;;;;;6277187;22;20175;-74
2021/08/31 20:02:25;;;;;;;8.13;2.93;;;17.30;99.90;;;;;;6277709;22;20325;-76
2021/08/31 20:04:52;;;;;;;4.07;2.00;;;17.40;99.90;;;;;;6277564;22;20178;-75
2021/08/31 20:07:18;;;;;;;6.53;2.03;;;17.30;99.90;;;;;;6276861;22;20182;-74
2021/08/31 20:09:45;;;;;;;6.47;2.10;;;17.40;99.90;;;;;;6276782;22;20185;-75
2021/08/31 20:12:12;;;;;;;4.73;1.90;;;17.20;99.90;;;;;;6277190;22;20179;-75
2021/08/31 20:14:39;;;;;;;6.87;2.00;;;17.20;99.90;;;;;;6276611;22;20181;-75
2021/08/31 20:17:05;;;;;;;4.97;2.00;;;17.30;99.90;;;;;;6276315;22;20214;-75
2021/08/31 20:19:34;;;;;;;5.80;1.97;;;17.40;99.90;;;;;;6276772;22;20182;-75
2021/08/31 20:22:00;;;;;;;4.77;2.13;;;17.40;99.90;;;;;;6276145;22;20634;-75
2021/08/31 20:24:27;;;;;;;4.13;1.73;;;17.40;99.90;;;;;;6276523;22;20198;-74
2021/08/31 20:26:54;;;;;;;4.90;2.20;;;17.50;99.90;;;;;;6276260;22;20182;-75
2021/08/31 20:29:23;;;;;;;6.03;1.97;;;17.50;99.90;;;;;;6276370;22;20174;-75
2021/08/31 20:31:50;;;;;;;4.83;2.00;;;17.50;99.90;;;;;;6276587;22;20262;-74
2021/08/31 20:34:17;;;;;;;5.57;2.23;;;17.40;99.90;;;;;;6276697;22;20278;-74
2021/08/31 20:36:45;;;;;;;6.80;2.17;;;17.20;99.90;;;;;;6276408;22;20207;-74
2021/08/31 20:39:12;;;;;;;4.90;2.50;;;17.30;99.90;;;;;;6275876;22;20502;-74
2021/08/31 20:41:39;;;;;;;7.90;2.40;;;17.40;99.90;;;;;;6276367;22;20175;-75
2021/08/31 20:44:06;;;;;;;4.13;2.40;;;17.30;99.90;;;;;;6275797;22;20198;-74
2021/08/31 20:46:33;;;;;;;5.30;2.47;;;17.40;99.90;;;;;;6276174;22;20175;-75
2021/08/31 20:49:00;;;;;;;5.07;2.40;;;17.50;99.90;;;;;;6275920;22;20684;-75
2021/08/31 20:51:27;;;;;;;7.63;2.50;;;17.70;99.90;;;;;;6275900;22;20179;-76
2021/08/31 20:53:55;;;;;;;7.13;2.70;;;17.40;99.90;;;;;;6275671;22;20210;-75
2021/08/31 20:56:22;;;;;;;7.23;2.47;;;17.30;99.90;;;;;;6275414;22;20529;-75
2021/08/31 20:58:49;;;;;;;5.87;2.50;;;17.40;99.90;;;;;;6275785;22;20174;-79
2021/08/31 21:01:16;;;;;;;4.67;2.50;;;17.30;99.90;;;;;;6274843;22;20175;-75